Terminal Aerodrome Forecast
Issued by NWS

Home | Current Version | Previous Version | Text Only | Print | Product List | Glossary On
Versions: 1 2 3 4 5 6 7 8 9 10 11 12 13 14 15 16 17 18 19 20 21 22 23 24 25 26 27 28 29 30 31 32 33 34 35 36
000
FTUS45 KCYS 210742 AAB
TAFRWL
TAF AMD
KRWL 210742Z 2108/2206 24015G25KT P6SM SCT025 BKN050
      TEMPO 2108/2112 BKN025
     FM211200 24025G35KT P6SM VCSH SCT020 OVC040
     FM211600 24030G40KT 1SM -SN BKN025
     FM212100 26030G40KT 5SM -SN SCT020 OVC040=

USA.gov is the U.S. government's official web portal to all federal, state and local government web resources and services.